A- A+ FrançaisEnglishEspañol中国

Services sur Internet Soldes sur Internet Des idées de cadeaux Météo Météo aéro

La météo à : Autours de vous Nimes-Courbessac Tarbes-Lourdes-PyrénéesMeaux-Esbly Toulouse-Lasbordes

manche à air

La météo aéronautique pour les pilotes, la préparation du vol avec les METAR (METeorological Aerodrome Report, message d'observation des conditions météorologiques pour l'aviation) et Les TAF (Terminal Aerodrome Forecast : message de prévision à court terme des conditions météorologiques pour l'aviation). Et les autres ressources comme les VAC (Visual Approch Chart) et les NOTAM (Notice To Airman) pour préprer les vols.

Aéroport Svolvaer Helle (Norvège) / OACI ENSH/ IATA SVJ

L'altitude de l'aéroport Svolvaer Helle est de 8 m = 26 ft. Il est situé à proximité de Svolvær (Norvège). La météo générale à 5 jours est disponible pour Vassvika situé à 29.9 km.

METAR de l'aéroport Svolvaer Helle - ENSH

ENSH 291550Z 33009KT 9999 FEW035 06/01 Q0991 RMK WIND 150FT 33010KT

Décodage du METAR de l'aéroport Svolvaer Helle (NO)

METAR émis par ENSH le dimanche 29 septembre 2019 à 15:50 heure TU. Attention ce METAR est obsolète car il a été émis il y a 19 heure et 24 minutes.

La visibilité est de supérieure à 10 km = supérieure à 6.2 sm.

La température est de 6°C = 43 °F et le point rosée est de 1°C = 34 °F . Ce qui correspond à 70% d'humidité relative.

Le QNH est de 991 hPa = 29.26 inHg

Vent de 9 kt = 17 km/h, orienté à 330°.

Nuages : Quelques nuages à 3500 ft = 1070 mètres.

RMK WIND 150FT 33010KT

TAF de l'aéroport Svolvaer Helle - ENSH

ENSH 291400Z 2915/2921 36009KT 9999 FEW030

ENSH 291400Z 2915/2921 36009KT 9999 quelques nuages à 030

Aéroport à proximité de Svolvaer Helle

Météo générale à 5 jours à Vassvika (29.9 km)Aéroport Stokmarknes Skagen (40 km)Aéroport Leknes (45 km)Aéroport Evenes (87 km)Aéroport Bodo (109 km)Aéroport Narvik Framnes (114 km)Aéroport Andoya (131 km)

Vue aérienne de l'aéroport Svolvaer Helle

NOTAM de l'aéroport Svolvaer Helle

Les NOTAM sont fournis sans aucune garantie de leur actualité. Le pilote est le seul responsable de la vérification de sa validité avant de l'utiliser opérationnellement pour préparer un vol ou l'utiliser lors de sa navigation.

NOTAM Aerodrome (du jeudi 10 octobre 2019 à 00:00 au jeudi 24 octobre 2019 à 23:59)

A3076/19 NOTAMN
Q) ENOR/QFATT/IV/BO /A /000/999/6815N01440E005
A) ENSH B) 1910100000 C) 1910232359
E) TRIGGER NOTAM AIP AIRAC AMDT 06/19 EFFECTIVE DATE 10 OCT 2019:
ADC REVISED
CREATED: 30 Aug 2019 10:28:00
SOURCE: EUECYIYN

NOTAM Aerodrome (du dimanche 11 août 2019 à 10:50 au dimanche 27 octobre 2019 à 23:59)

E2481/19 NOTAMN
Q) ENOR/QFAAH/IV/NBO/A /000/999/6815N01440E005
A) ENSH B) 1908111050 C) 1910262359
E) AERODROME HOURS OF SERVICE: MON-WED 0230-2035, THU-FRI 0315-2035,
SAT 0630-1200, SUN 1030-1230 1430-2035
CREATED: 11 Aug 2019 10:51:00
SOURCE: EUECYIYN

Sources des données